Time;durP1;ratioP1;P1;durP2;ratioP2;P2;SDS_P1;SDS_P2;PMS_P1;PMS_P2;Temp;Humidity;BMP_temperature;BMP_pressure;BME280_temperature;BME280_humidity;BME280_pressure;Samples;Min_cycle;Max_cycle;Signal;HPM_P1;HPM_P2
2022/07/14 00:00:28;;;;;;;3.13;2.25;;;21.30;99.90;;;;;;5018132;28;20182;-87
2022/07/14 00:02:54;;;;;;;3.40;2.08;;;21.30;99.90;;;;;;5002072;28;20373;-87
2022/07/14 00:05:20;;;;;;;1.90;1.80;;;21.30;99.90;;;;;;5001452;28;20217;-86
2022/07/14 00:07:46;;;;;;;4.82;2.20;;;21.30;99.90;;;;;;4986482;28;20225;-87
2022/07/14 00:10:12;;;;;;;3.92;1.98;;;21.20;99.90;;;;;;4998379;28;20190;-87
2022/07/14 00:12:38;;;;;;;2.50;1.90;;;21.30;99.90;;;;;;5017557;28;20197;-86
2022/07/14 00:15:04;;;;;;;2.03;1.90;;;21.30;99.90;;;;;;5001215;28;20209;-87
2022/07/14 00:17:30;;;;;;;2.10;1.83;;;21.30;99.90;;;;;;5001670;28;20179;-86
2022/07/14 00:19:56;;;;;;;2.35;2.00;;;21.30;99.90;;;;;;5001115;28;20186;-86
2022/07/14 00:22:21;;;;;;;3.67;2.10;;;21.30;99.90;;;;;;5017869;28;20190;-86
2022/07/14 00:24:48;;;;;;;2.70;1.50;;;21.30;99.90;;;;;;5018121;28;20209;-85
2022/07/14 00:27:14;;;;;;;1.88;1.77;;;21.20;99.90;;;;;;5001423;28;20179;-86
2022/07/14 00:29:40;;;;;;;1.92;1.60;;;21.30;99.90;;;;;;5000838;28;20192;-85
2022/07/14 00:32:12;;;;;;;2.83;1.98;;;21.30;99.90;;;;;;5000512;28;20317;-85
2022/07/14 00:34:38;;;;;;;2.58;1.67;;;21.30;99.90;;;;;;5000295;28;20195;-85
2022/07/14 00:37:05;;;;;;;3.05;1.67;;;21.30;99.90;;;;;;5000478;28;20178;-86
2022/07/14 00:39:54;;;;;;;1.90;1.80;;;21.40;99.90;;;;;;5000792;28;20171;-86
2022/07/14 00:42:27;;;;;;;1.83;1.60;;;21.40;99.90;;;;;;5017417;28;20217;-86
2022/07/14 00:44:53;;;;;;;3.10;1.80;;;21.40;99.90;;;;;;5000528;28;20206;-86
2022/07/14 00:47:19;;;;;;;2.47;1.50;;;21.40;99.90;;;;;;5001623;28;20189;-86
2022/07/14 00:49:45;;;;;;;2.70;1.67;;;21.30;99.90;;;;;;5034961;28;20182;-86
2022/07/14 00:52:11;;;;;;;1.58;1.48;;;21.20;99.90;;;;;;5000511;28;20226;-85
2022/07/14 00:54:37;;;;;;;3.40;1.80;;;21.20;99.90;;;;;;5000815;28;20218;-86
2022/07/14 00:57:03;;;;;;;2.40;1.80;;;21.10;99.90;;;;;;5001076;28;20178;-86
2022/07/14 00:59:29;;;;;;;4.13;2.00;;;21.10;99.90;;;;;;5001548;28;20170;-86
2022/07/14 01:01:55;;;;;;;1.80;1.67;;;21.00;99.90;;;;;;5001899;28;20233;-86
2022/07/14 01:04:21;;;;;;;3.20;1.80;;;21.00;99.90;;;;;;5017021;28;20256;-87
2022/07/14 01:06:47;;;;;;;2.78;1.70;;;21.00;99.90;;;;;;5000653;28;20178;-86
2022/07/14 01:09:13;;;;;;;1.70;1.60;;;20.90;99.90;;;;;;5000081;28;20225;-85
2022/07/14 01:11:39;;;;;;;4.20;2.35;;;20.90;99.90;;;;;;4999942;28;20175;-85
2022/07/14 01:14:04;;;;;;;2.38;1.90;;;20.80;99.90;;;;;;4999842;28;20245;-85
2022/07/14 01:16:30;;;;;;;2.10;2.00;;;20.70;99.90;;;;;;5000043;28;20206;-86
2022/07/14 01:18:56;;;;;;;2.90;1.90;;;20.60;99.90;;;;;;5000384;28;20181;-87
2022/07/14 01:21:22;;;;;;;1.60;1.50;;;20.60;99.90;;;;;;4999900;28;20232;-87
2022/07/14 01:23:49;;;;;;;2.28;1.90;;;20.50;99.90;;;;;;4996207;28;20278;-86
2022/07/14 01:26:15;;;;;;;2.97;1.95;;;20.40;99.90;;;;;;4996500;28;20202;-87
2022/07/14 01:28:43;;;;;;;3.17;2.25;;;20.30;99.90;;;;;;4996421;28;20651;-86
2022/07/14 01:31:09;;;;;;;3.83;2.10;;;20.20;99.90;;;;;;4999819;28;20221;-85
2022/07/14 01:33:36;;;;;;;4.25;2.05;;;20.00;99.90;;;;;;4999004;28;20694;-86
2022/07/14 01:36:02;;;;;;;3.53;1.80;;;19.90;99.90;;;;;;4997720;28;20194;-85
2022/07/14 01:38:28;;;;;;;2.40;1.92;;;19.90;99.90;;;;;;5013880;28;20190;-85
2022/07/14 01:40:54;;;;;;;3.00;1.80;;;19.90;99.90;;;;;;4999711;28;20178;-86
2022/07/14 01:43:20;;;;;;;1.77;1.67;;;19.90;99.90;;;;;;4999387;28;20183;-86
2022/07/14 01:45:47;;;;;;;3.13;1.50;;;19.90;99.90;;;;;;5015772;28;20198;-86
2022/07/14 01:48:13;;;;;;;5.55;2.00;;;19.90;99.90;;;;;;4999663;28;20183;-86
2022/07/14 01:50:39;;;;;;;2.03;1.58;;;19.90;99.90;;;;;;4999590;28;20258;-86
2022/07/14 01:53:06;;;;;;;3.20;2.08;;;20.00;99.90;;;;;;4998616;28;20604;-86
2022/07/14 01:55:34;;;;;;;5.43;1.92;;;20.00;99.90;;;;;;4999397;28;20276;-86
2022/07/14 01:57:59;;;;;;;2.22;1.60;;;20.00;99.90;;;;;;4999405;28;20178;-86
2022/07/14 02:00:25;;;;;;;2.92;1.67;;;19.90;99.90;;;;;;4999393;28;20178;-86
2022/07/14 02:02:59;;;;;;;3.38;1.58;;;19.90;99.90;;;;;;5000768;28;20321;-86
2022/07/14 02:05:27;;;;;;;1.65;1.50;;;20.00;99.90;;;;;;4999429;28;20276;-86
2022/07/14 02:07:53;;;;;;;1.80;1.70;;;20.00;99.90;;;;;;4983142;28;20183;-86
2022/07/14 02:13:08;;;;;;;1.67;1.58;;;20.10;99.90;;;;;;5005879;28;20232;-87
2022/07/14 02:15:34;;;;;;;4.90;2.00;;;20.00;99.90;;;;;;5001530;28;20211;-86
2022/07/14 02:18:00;;;;;;;2.40;2.00;;;20.00;99.90;;;;;;5002950;28;20186;-86
2022/07/14 02:20:26;;;;;;;1.80;1.70;;;19.90;99.90;;;;;;5001706;28;20174;-86
2022/07/14 02:22:52;;;;;;;2.40;1.90;;;19.90;99.90;;;;;;4998733;28;20183;-87
2022/07/14 02:25:18;;;;;;;3.08;2.00;;;19.90;99.90;;;;;;4998450;28;20202;-87
2022/07/14 02:27:43;;;;;;;3.60;1.85;;;19.70;99.90;;;;;;5015194;28;20175;-88
2022/07/14 02:30:10;;;;;;;2.65;1.80;;;19.60;99.90;;;;;;5014701;28;20212;-87
2022/07/14 02:32:37;;;;;;;1.73;1.63;;;19.50;99.90;;;;;;4998362;28;20264;-87
2022/07/14 02:35:03;;;;;;;2.05;1.80;;;19.50;99.90;;;;;;4998411;28;20202;-86
2022/07/14 02:37:30;;;;;;;2.33;1.80;;;19.40;99.90;;;;;;4998318;28;20221;-87
2022/07/14 02:39:56;;;;;;;3.03;1.80;;;19.30;99.90;;;;;;4998242;28;20190;-86
2022/07/14 02:42:23;;;;;;;3.08;2.17;;;19.30;99.90;;;;;;4998099;28;20186;-86
2022/07/14 02:44:50;;;;;;;4.38;1.90;;;19.10;99.90;;;;;;4998048;28;20662;-86
2022/07/14 02:47:16;;;;;;;3.55;2.03;;;18.90;99.90;;;;;;5001228;28;20228;-86
2022/07/14 02:49:42;;;;;;;2.20;2.00;;;18.80;99.90;;;;;;5002380;28;20182;-86
2022/07/14 02:52:08;;;;;;;2.15;1.92;;;18.70;99.90;;;;;;5002102;28;20263;-86
2022/07/14 02:54:37;;;;;;;3.15;2.13;;;18.60;99.90;;;;;;5002475;28;20284;-86
2022/07/14 02:57:37;;;;;;;3.63;2.20;;;18.60;99.90;;;;;;5001444;28;20261;-85
2022/07/14 03:00:09;;;;;;;3.53;2.10;;;18.50;99.90;;;;;;5001787;28;20178;-85
2022/07/14 03:02:36;;;;;;;2.10;1.90;;;18.50;99.90;;;;;;5002248;28;20188;-86
2022/07/14 03:05:02;;;;;;;2.55;2.10;;;18.40;99.90;;;;;;5001947;28;20248;-85
2022/07/14 03:07:30;;;;;;;2.22;2.00;;;18.30;99.90;;;;;;5002039;28;20181;-86
2022/07/14 03:09:57;;;;;;;2.97;2.10;;;18.20;99.90;;;;;;5002307;28;20186;-85
2022/07/14 03:12:23;;;;;;;2.30;1.90;;;18.20;99.90;;;;;;5001708;28;20210;-87
2022/07/14 03:14:49;;;;;;;6.65;2.20;;;18.10;99.90;;;;;;5001644;28;20210;-87
2022/07/14 03:17:16;;;;;;;2.33;2.10;;;18.10;99.90;;;;;;5002510;28;20174;-87
2022/07/14 03:19:42;;;;;;;3.72;2.00;;;18.10;99.90;;;;;;5002005;28;20182;-86
2022/07/14 03:22:08;;;;;;;4.38;1.73;;;18.00;99.90;;;;;;5002021;28;20643;-87
2022/07/14 05:15:40;;;;;;;3.33;2.00;;;19.00;99.90;;;;;;5021458;28;20278;-92
2022/07/14 05:18:06;;;;;;;2.40;1.80;;;18.90;99.90;;;;;;4982265;28;20207;-92
2022/07/14 05:20:32;;;;;;;2.85;1.90;;;18.70;99.90;;;;;;4982147;28;20654;-93
2022/07/14 05:22:58;;;;;;;3.67;2.00;;;18.60;99.90;;;;;;4982687;28;20241;-93
2022/07/14 05:25:29;;;;;;;2.88;1.77;;;18.50;99.90;;;;;;4984996;28;20175;-94
2022/07/14 05:27:55;;;;;;;2.03;1.83;;;18.60;99.90;;;;;;4987643;28;20171;-92
2022/07/14 05:30:45;;;;;;;3.17;1.85;;;18.70;99.90;;;;;;4985614;28;20329;-92
2022/07/14 05:33:11;;;;;;;5.53;2.03;;;18.80;99.90;;;;;;4981786;28;20285;-90
2022/07/14 05:35:40;;;;;;;2.45;1.67;;;18.90;99.90;;;;;;4981310;28;20218;-90
2022/07/14 05:38:06;;;;;;;2.80;1.80;;;19.10;99.90;;;;;;4981682;28;20209;-88
2022/07/14 05:40:35;;;;;;;2.70;1.95;;;19.20;99.90;;;;;;4982557;28;20210;-93
2022/07/14 05:43:02;;;;;;;2.78;1.90;;;19.40;99.90;;;;;;4985827;28;20187;-92
2022/07/14 05:45:28;;;;;;;2.95;1.88;;;19.50;99.90;;;;;;4978259;28;20180;-92
2022/07/14 05:47:54;;;;;;;2.58;2.03;;;19.70;99.90;;;;;;5010161;23;20233;-35
2022/07/14 05:50:21;;;;;;;2.30;1.92;;;19.80;99.90;;;;;;4995993;28;20186;-36
2022/07/14 05:52:48;;;;;;;2.72;1.70;;;20.00;99.90;;;;;;5013571;28;20316;-34
2022/07/14 05:55:14;;;;;;;2.88;2.10;;;20.20;99.90;;;;;;4996881;28;20210;-32
2022/07/14 05:57:41;;;;;;;2.65;2.10;;;20.30;99.90;;;;;;4994428;28;20201;-35
2022/07/14 06:00:09;;;;;;;2.97;1.92;;;20.50;99.90;;;;;;4992971;28;20186;-33
2022/07/14 06:02:43;;;;;;;2.60;1.88;;;20.70;99.90;;;;;;4994361;28;20691;-36
2022/07/14 06:05:15;;;;;;;5.13;1.70;;;20.90;99.90;;;;;;4992562;28;20187;-36
2022/07/14 06:07:41;;;;;;;2.85;1.48;;;21.10;99.90;;;;;;4977422;28;20207;-39
2022/07/14 06:10:11;;;;;;;2.92;1.50;;;21.30;99.90;;;;;;4992659;28;20175;-35
2022/07/14 06:12:38;;;;;;;3.05;1.70;;;21.50;99.90;;;;;;4976594;28;20252;-38
2022/07/14 06:15:07;;;;;;;3.63;1.52;;;21.70;99.90;;;;;;4977141;28;20183;-37
2022/07/14 06:17:35;;;;;;;2.38;1.67;;;21.90;99.90;;;;;;4977513;28;20223;-37
2022/07/14 06:20:09;;;;;;;3.67;1.63;;;22.10;99.90;;;;;;4977050;28;20182;-37
2022/07/14 06:22:39;;;;;;;1.90;1.70;;;22.30;99.90;;;;;;4993201;28;20178;-38
2022/07/14 06:25:06;;;;;;;2.10;1.50;;;22.40;99.90;;;;;;4977160;28;20261;-37
2022/07/14 06:27:32;;;;;;;2.45;1.80;;;22.70;99.90;;;;;;4993640;28;20203;-39
2022/07/14 06:30:01;;;;;;;2.58;1.67;;;22.90;99.90;;;;;;4993050;28;20178;-39
2022/07/14 06:32:28;;;;;;;2.92;1.75;;;23.10;99.90;;;;;;4993547;28;20294;-38
2022/07/14 06:34:54;;;;;;;3.00;1.65;;;23.30;99.90;;;;;;4992848;28;20175;-38
2022/07/14 06:37:22;;;;;;;3.42;1.75;;;23.30;99.90;;;;;;4977617;28;20261;-38
2022/07/14 06:39:48;;;;;;;3.92;1.60;;;23.40;99.90;;;;;;4992946;28;20293;-40
2022/07/14 06:42:16;;;;;;;3.53;1.65;;;23.50;99.90;;;;;;4977173;28;20273;-38
2022/07/14 06:44:50;;;;;;;2.63;1.52;;;23.60;99.90;;;;;;4977235;28;20201;-40
2022/07/14 06:47:17;;;;;;;1.73;1.63;;;23.60;99.90;;;;;;4977509;28;20278;-38
2022/07/14 06:49:45;;;;;;;1.95;1.40;;;23.60;99.90;;;;;;4993621;28;20183;-40
2022/07/14 06:52:11;;;;;;;2.75;1.77;;;23.80;99.90;;;;;;4993278;28;20206;-37
2022/07/14 06:54:36;;;;;;;2.78;1.52;;;23.90;99.90;;;;;;4976665;28;20225;-38
2022/07/14 06:57:02;;;;;;;3.45;2.20;;;23.90;99.90;;;;;;4992802;28;20782;-38
2022/07/14 06:59:28;;;;;;;3.20;1.55;;;24.00;99.90;;;;;;4976388;28;20167;-37
2022/07/14 07:01:54;;;;;;;1.92;1.80;;;24.10;99.90;;;;;;4965061;28;20221;-37
2022/07/14 07:04:20;;;;;;;4.13;1.60;;;24.30;99.90;;;;;;4992526;28;20179;-38
2022/07/14 07:06:46;;;;;;;3.70;1.88;;;24.50;99.90;;;;;;4993024;28;20203;-35
2022/07/14 07:09:13;;;;;;;2.60;1.77;;;24.50;99.90;;;;;;4992034;28;20189;-35
2022/07/14 07:11:39;;;;;;;2.20;1.65;;;24.50;99.90;;;;;;4993187;28;20175;-38
2022/07/14 07:14:05;;;;;;;4.55;1.45;;;24.40;99.90;;;;;;4975889;28;20218;-37
2022/07/14 07:16:31;;;;;;;1.40;1.23;;;24.50;99.90;;;;;;4993167;28;20200;-38
2022/07/14 07:18:57;;;;;;;5.53;1.85;;;24.60;99.90;;;;;;4992952;28;20179;-39
2022/07/14 07:21:23;;;;;;;2.17;1.77;;;24.70;99.90;;;;;;4991396;28;20179;-38
2022/07/14 07:23:49;;;;;;;2.25;1.42;;;24.80;99.90;;;;;;4983719;28;20178;-37
2022/07/14 07:26:17;;;;;;;1.60;1.42;;;25.10;99.90;;;;;;5030194;28;20198;-37
2022/07/14 07:28:44;;;;;;;3.00;1.60;;;25.30;99.90;;;;;;5011246;28;20207;-41
2022/07/14 07:31:10;;;;;;;2.88;1.73;;;25.60;99.90;;;;;;5007926;28;20183;-38
2022/07/14 07:33:36;;;;;;;2.15;1.60;;;25.80;99.90;;;;;;4993705;28;20237;-38
2022/07/14 07:36:02;;;;;;;4.15;1.77;;;26.00;99.90;;;;;;4995849;28;20198;-38
2022/07/14 07:38:28;;;;;;;2.35;1.60;;;26.10;99.90;;;;;;4979054;28;20346;-40
2022/07/14 07:40:56;;;;;;;2.20;1.88;;;26.10;99.90;;;;;;5003173;28;20187;-39
2022/07/14 07:43:22;;;;;;;2.70;1.63;;;26.20;99.90;;;;;;5013663;28;20212;-38
2022/07/14 07:45:49;;;;;;;2.67;1.67;;;26.20;99.90;;;;;;4975384;28;20229;-36
2022/07/14 07:48:15;;;;;;;6.25;1.92;;;26.40;99.90;;;;;;5004859;28;20187;-37
2022/07/14 07:50:43;;;;;;;4.47;1.70;;;26.40;99.90;;;;;;4978942;28;20197;-40
2022/07/14 07:53:12;;;;;;;2.72;1.48;;;26.50;99.90;;;;;;5011932;28;20199;-40
2022/07/14 07:55:41;;;;;;;2.00;1.33;;;26.70;99.90;;;;;;5011627;28;20238;-40
2022/07/14 07:58:08;;;;;;;1.65;1.55;;;26.90;99.90;;;;;;4994770;28;20267;-38
2022/07/14 08:00:34;;;;;;;1.85;1.70;;;27.10;99.90;;;;;;4978155;28;20194;-37
2022/07/14 08:03:01;;;;;;;3.03;1.83;;;27.30;99.90;;;;;;4994806;28;20188;-37
2022/07/14 08:05:29;;;;;;;2.70;1.55;;;27.50;99.90;;;;;;4979127;28;20278;-39
2022/07/14 08:07:56;;;;;;;2.13;1.90;;;27.60;99.90;;;;;;4976611;28;20250;-38
2022/07/14 08:10:24;;;;;;;6.22;2.08;;;27.60;99.90;;;;;;4994595;28;20187;-39
2022/07/14 08:12:51;;;;;;;2.13;1.90;;;27.70;99.90;;;;;;4978412;28;20203;-36
2022/07/14 08:15:18;;;;;;;3.13;1.83;;;27.80;99.90;;;;;;5008314;28;20183;-40
2022/07/14 08:17:45;;;;;;;2.42;1.55;;;27.80;99.90;;;;;;4995084;28;20751;-39
2022/07/14 08:20:12;;;;;;;2.03;1.70;;;28.00;99.90;;;;;;4982764;28;20189;-37
2022/07/14 08:22:39;;;;;;;3.75;1.90;;;28.20;99.90;;;;;;4993697;28;20180;-40
2022/07/14 08:25:07;;;;;;;4.18;1.90;;;28.50;99.90;;;;;;4993982;28;20187;-40
2022/07/14 08:27:34;;;;;;;3.63;1.80;;;28.70;99.80;;;;;;4992214;28;20223;-38
2022/07/14 08:30:01;;;;;;;4.15;1.60;;;28.80;98.60;;;;;;4993382;28;20226;-37
2022/07/14 08:32:49;;;;;;;3.00;2.10;;;28.80;98.70;;;;;;5010681;28;20203;-38
2022/07/14 08:35:17;;;;;;;2.17;1.95;;;28.80;99.80;;;;;;5009016;28;20175;-37
2022/07/14 08:37:44;;;;;;;2.88;1.70;;;28.90;99.50;;;;;;4991576;28;20251;-37
2022/07/14 08:40:15;;;;;;;2.95;1.63;;;29.00;99.00;;;;;;5017746;28;20186;-40
2022/07/14 08:42:44;;;;;;;4.88;1.83;;;29.10;98.80;;;;;;4998499;28;20188;-39
2022/07/14 08:45:12;;;;;;;3.22;1.75;;;29.30;98.90;;;;;;4976828;28;20206;-40
2022/07/14 08:47:39;;;;;;;2.00;1.40;;;29.40;98.60;;;;;;4978590;28;20226;-38
2022/07/14 08:50:07;;;;;;;2.05;1.77;;;29.70;98.10;;;;;;4994500;28;20183;-40
2022/07/14 08:52:34;;;;;;;3.13;1.90;;;29.60;96.10;;;;;;4994497;28;20215;-39
2022/07/14 08:55:00;;;;;;;1.77;1.67;;;29.70;96.40;;;;;;4994434;28;20202;-39
2022/07/14 08:57:26;;;;;;;3.80;1.67;;;29.90;96.20;;;;;;4994518;28;20192;-39
2022/07/14 08:59:52;;;;;;;3.08;1.80;;;30.30;96.10;;;;;;4994305;28;20193;-40
2022/07/14 09:02:18;;;;;;;2.97;1.40;;;30.50;95.60;;;;;;4994695;28;20187;-40
2022/07/14 09:04:45;;;;;;;4.72;1.92;;;30.80;95.30;;;;;;5011735;28;20167;-39
2022/07/14 09:07:28;;;;;;;2.92;1.67;;;31.10;94.90;;;;;;4978285;28;20218;-39
2022/07/14 09:10:14;;;;;;;2.38;1.42;;;31.30;93.80;;;;;;4994106;28;20266;-39
2022/07/14 09:12:44;;;;;;;5.43;1.60;;;31.50;92.90;;;;;;5011123;28;20680;-41
2022/07/14 09:17:59;;;;;;;2.70;1.70;;;31.50;90.90;;;;;;4993872;28;20178;-39
2022/07/14 09:20:28;;;;;;;3.17;1.67;;;31.60;91.60;;;;;;4978294;28;20218;-39
2022/07/14 09:22:59;;;;;;;2.80;1.63;;;31.60;90.90;;;;;;4994171;28;20194;-39
2022/07/14 09:25:26;;;;;;;2.40;1.50;;;31.80;90.80;;;;;;4977901;28;20218;-39
2022/07/14 09:27:54;;;;;;;1.50;1.40;;;31.80;84.10;;;;;;4978361;28;20297;-39
2022/07/14 09:30:21;;;;;;;3.53;1.27;;;31.70;82.40;;;;;;4993593;28;20176;-41
2022/07/14 09:32:51;;;;;;;5.03;1.60;;;31.80;81.00;;;;;;4993373;28;20589;-41
2022/07/14 09:35:25;;;;;;;1.67;1.20;;;31.90;82.90;;;;;;4976791;28;20185;-39
2022/07/14 09:37:52;;;;;;;7.43;1.73;;;32.10;82.30;;;;;;4993551;28;20215;-39
2022/07/14 09:40:25;;;;;;;1.70;1.50;;;32.20;82.80;;;;;;5011075;28;20175;-41
2022/07/14 09:42:57;;;;;;;1.60;1.48;;;32.20;78.90;;;;;;4975502;28;20211;-41
2022/07/14 09:45:28;;;;;;;1.52;1.20;;;32.00;76.60;;;;;;4976954;28;20171;-41
2022/07/14 09:48:06;;;;;;;3.83;1.40;;;32.00;77.30;;;;;;4973682;28;20370;-39
2022/07/14 09:50:39;;;;;;;2.25;1.25;;;32.00;77.90;;;;;;5009537;28;20183;-39
2022/07/14 09:53:17;;;;;;;1.77;1.30;;;32.00;75.60;;;;;;4993007;28;20207;-41
2022/07/14 09:56:10;;;;;;;1.88;1.20;;;32.00;76.60;;;;;;4973513;28;20215;-41
2022/07/14 09:58:51;;;;;;;1.85;1.25;;;32.10;73.30;;;;;;4990611;28;20190;-41
2022/07/14 10:01:21;;;;;;;3.40;1.25;;;32.20;75.80;;;;;;4992696;28;20259;-41
2022/07/14 10:03:49;;;;;;;2.15;1.35;;;32.50;76.70;;;;;;4989425;28;20211;-41
2022/07/14 10:06:18;;;;;;;1.50;1.27;;;32.50;72.80;;;;;;5006042;28;20225;-40
2022/07/14 10:08:50;;;;;;;3.22;1.33;;;32.70;73.10;;;;;;4987489;28;20254;-41
2022/07/14 10:11:23;;;;;;;2.88;1.10;;;32.80;73.50;;;;;;4990715;28;20182;-42
2022/07/14 10:13:50;;;;;;;1.50;1.40;;;32.70;71.80;;;;;;4990287;28;20207;-41
2022/07/14 10:16:17;;;;;;;2.15;1.30;;;32.50;71.60;;;;;;4989452;28;20199;-41
2022/07/14 10:18:45;;;;;;;2.03;1.30;;;32.50;72.00;;;;;;4990867;28;20180;-39
2022/07/14 10:21:11;;;;;;;1.50;1.15;;;32.60;72.20;;;;;;4988850;28;20210;-40
2022/07/14 10:23:38;;;;;;;1.40;1.30;;;32.60;72.00;;;;;;4974644;28;20179;-41
2022/07/14 10:26:05;;;;;;;2.17;1.17;;;32.60;71.80;;;;;;4984166;28;20203;-39
2022/07/14 10:28:31;;;;;;;3.53;1.50;;;32.60;72.70;;;;;;4975299;28;20183;-41
2022/07/14 10:31:06;;;;;;;1.88;1.50;;;32.50;70.00;;;;;;4992131;28;20182;-38
2022/07/14 10:33:50;;;;;;;2.40;1.40;;;32.40;69.00;;;;;;4976492;28;20225;-39
2022/07/14 10:36:30;;;;;;;2.88;1.60;;;32.50;72.30;;;;;;4999063;28;20203;-41
2022/07/14 10:39:00;;;;;;;2.50;1.42;;;32.70;70.80;;;;;;4992088;28;20175;-39
2022/07/14 10:41:46;;;;;;;1.83;1.73;;;32.80;68.10;;;;;;4992584;28;20183;-39
2022/07/14 10:44:22;;;;;;;1.30;1.20;;;33.00;67.50;;;;;;4975819;28;20201;-40
2022/07/14 10:46:51;;;;;;;1.83;1.40;;;33.10;68.20;;;;;;4992555;28;20202;-40
2022/07/14 10:49:18;;;;;;;3.13;1.70;;;33.30;71.00;;;;;;4992744;28;20553;-39
2022/07/14 10:51:52;;;;;;;1.45;1.35;;;33.40;68.60;;;;;;4976356;28;20233;-41
2022/07/14 10:54:29;;;;;;;1.67;1.35;;;33.40;68.60;;;;;;4992033;28;20199;-41
2022/07/14 10:57:17;;;;;;;3.33;1.60;;;33.40;69.10;;;;;;4997400;28;20210;-41
2022/07/14 10:59:47;;;;;;;1.33;1.20;;;33.40;65.90;;;;;;4995426;28;20172;-41
2022/07/14 11:02:13;;;;;;;1.90;1.25;;;33.30;65.60;;;;;;4994745;28;20251;-41
2022/07/14 11:05:00;;;;;;;1.42;1.33;;;33.30;66.30;;;;;;4992048;28;20262;-41
2022/07/14 11:07:46;;;;;;;1.60;1.40;;;33.50;67.70;;;;;;4994772;28;20365;-41
2022/07/14 11:10:11;;;;;;;1.60;1.50;;;33.70;66.10;;;;;;4987332;28;20268;-39
2022/07/14 11:13:03;;;;;;;4.00;1.30;;;33.80;65.50;;;;;;4996878;28;20238;-41
2022/07/14 11:15:50;;;;;;;2.42;1.40;;;34.00;65.60;;;;;;4979221;28;20198;-41
2022/07/14 11:18:19;;;;;;;2.17;1.33;;;34.10;64.00;;;;;;4996440;28;20170;-39
2022/07/14 11:21:08;;;;;;;1.58;1.30;;;34.10;65.10;;;;;;4996882;28;20250;-41
2022/07/14 11:23:50;;;;;;;3.00;1.10;;;34.00;65.80;;;;;;4997777;28;20198;-42
2022/07/14 11:26:37;;;;;;;2.92;1.30;;;34.10;63.80;;;;;;4991904;28;20214;-39
2022/07/14 11:29:05;;;;;;;2.35;1.23;;;34.10;65.00;;;;;;5004947;28;20183;-39
2022/07/14 11:31:50;;;;;;;4.32;1.40;;;34.20;64.10;;;;;;4992022;28;20187;-41
2022/07/14 11:37:15;;;;;;;2.60;1.30;;;34.40;63.30;;;;;;5008592;28;20203;-41
2022/07/14 11:39:44;;;;;;;2.80;1.50;;;34.60;61.20;;;;;;4992738;28;20187;-40
2022/07/14 11:42:13;;;;;;;1.95;1.30;;;34.60;64.10;;;;;;5010281;28;20182;-41
2022/07/14 11:44:39;;;;;;;2.03;1.30;;;34.70;61.50;;;;;;4993159;28;20175;-40
2022/07/14 11:47:18;;;;;;;2.95;1.40;;;34.60;63.10;;;;;;5011750;28;20222;-41
2022/07/14 11:49:56;;;;;;;1.60;1.27;;;34.50;64.10;;;;;;4992930;28;20175;-41
2022/07/14 11:52:28;;;;;;;1.63;1.40;;;34.70;65.80;;;;;;4993252;28;20212;-39
2022/07/14 11:54:56;;;;;;;3.35;1.40;;;34.80;64.40;;;;;;4992126;28;20187;-40
2022/07/14 11:57:23;;;;;;;2.78;1.20;;;35.10;65.20;;;;;;4993851;28;20225;-41
2022/07/14 11:59:49;;;;;;;2.25;1.35;;;35.00;61.90;;;;;;4994448;28;20226;-41
2022/07/14 12:02:18;;;;;;;1.50;1.27;;;34.90;61.80;;;;;;5029541;23;20255;-34
2022/07/14 12:04:56;;;;;;;4.80;1.70;;;34.90;63.40;;;;;;5006829;28;20187;-34
2022/07/14 12:07:26;;;;;;;4.32;1.42;;;35.00;61.80;;;;;;4981694;28;20267;-34
2022/07/14 12:09:53;;;;;;;2.70;1.60;;;35.20;63.90;;;;;;4977956;28;20320;-34
2022/07/14 12:12:20;;;;;;;5.07;1.40;;;35.20;62.70;;;;;;4993734;28;20235;-34
2022/07/14 12:14:49;;;;;;;1.63;1.42;;;35.20;61.00;;;;;;4978011;28;20198;-34
2022/07/14 12:17:16;;;;;;;1.33;1.23;;;35.20;62.10;;;;;;4999009;28;20226;-34
2022/07/14 12:19:42;;;;;;;3.13;2.55;;;35.30;61.80;;;;;;4976450;28;20203;-34
2022/07/14 12:22:08;;;;;;;2.35;1.42;;;35.50;63.50;;;;;;4976979;28;20223;-34
2022/07/14 12:24:34;;;;;;;2.88;1.30;;;35.40;59.90;;;;;;4993856;28;20188;-34
2022/07/14 12:27:05;;;;;;;1.55;1.30;;;34.90;60.10;;;;;;4983470;28;20230;-34
2022/07/14 12:29:32;;;;;;;7.28;1.67;;;34.80;65.30;;;;;;4984348;28;20180;-34
2022/07/14 12:31:59;;;;;;;1.85;1.40;;;34.80;63.30;;;;;;4999479;28;20199;-34
2022/07/14 12:34:27;;;;;;;2.17;1.70;;;34.90;63.90;;;;;;4978003;28;20207;-34
2022/07/14 12:36:57;;;;;;;2.28;1.67;;;35.10;61.80;;;;;;4971263;28;20196;-33
2022/07/14 12:39:24;;;;;;;3.30;1.60;;;35.30;62.30;;;;;;4991773;28;20206;-34
2022/07/14 12:41:50;;;;;;;2.25;1.52;;;35.30;63.30;;;;;;4998603;28;20210;-34
2022/07/14 12:44:17;;;;;;;5.05;1.80;;;35.40;63.90;;;;;;4981996;28;20195;-34
2022/07/14 12:46:43;;;;;;;2.45;1.80;;;35.40;63.60;;;;;;4977112;28;20187;-34
2022/07/14 12:49:10;;;;;;;2.33;1.40;;;35.50;62.50;;;;;;5009002;28;20199;-33
2022/07/14 12:51:45;;;;;;;2.75;1.60;;;35.70;61.90;;;;;;5001053;28;20203;-34
2022/07/14 12:54:18;;;;;;;3.47;1.40;;;35.70;61.80;;;;;;4986158;28;20222;-33
2022/07/14 12:56:43;;;;;;;2.33;1.60;;;35.50;63.40;;;;;;4980737;28;20191;-34
2022/07/14 12:59:17;;;;;;;2.22;1.55;;;35.70;64.20;;;;;;4994640;28;20184;-34
2022/07/14 13:01:52;;;;;;;2.67;1.60;;;36.20;64.20;;;;;;4970029;28;20227;-34
2022/07/14 13:04:36;;;;;;;2.08;1.73;;;36.50;61.60;;;;;;4992954;28;20187;-34
2022/07/14 13:07:12;;;;;;;3.38;1.65;;;36.50;60.20;;;;;;5008773;28;20192;-34
2022/07/14 13:09:38;;;;;;;2.20;1.25;;;36.10;61.30;;;;;;4997647;28;20198;-34
2022/07/14 13:12:28;;;;;;;2.10;1.58;;;36.20;61.80;;;;;;4975667;28;20219;-35
2022/07/14 13:14:59;;;;;;;2.08;1.70;;;36.20;61.10;;;;;;4976570;28;20184;-34
2022/07/14 13:17:50;;;;;;;3.30;1.75;;;36.40;62.30;;;;;;4976603;28;20249;-34
2022/07/14 13:20:44;;;;;;;2.33;1.50;;;36.20;61.20;;;;;;4972060;28;20192;-34
2022/07/14 13:23:31;;;;;;;4.75;1.67;;;36.10;63.80;;;;;;5000013;28;20282;-34
2022/07/14 13:26:13;;;;;;;2.60;1.48;;;35.90;64.10;;;;;;5005032;28;20220;-34
2022/07/14 13:28:40;;;;;;;3.30;1.27;;;35.90;63.70;;;;;;5020379;28;20210;-34
2022/07/14 13:31:18;;;;;;;2.70;1.55;;;36.00;64.10;;;;;;4990944;28;20291;-33
2022/07/14 13:33:48;;;;;;;3.97;1.30;;;36.10;62.80;;;;;;4999783;28;20208;-35
2022/07/14 13:36:16;;;;;;;4.13;1.48;;;36.30;63.90;;;;;;4975874;28;20188;-34
2022/07/14 13:38:42;;;;;;;6.38;1.60;;;36.40;63.30;;;;;;4996289;28;20274;-35
2022/07/14 13:41:11;;;;;;;3.47;1.52;;;36.40;62.60;;;;;;5027839;28;20209;-34
2022/07/14 13:43:38;;;;;;;2.08;1.38;;;36.50;63.20;;;;;;4981948;28;20176;-35
2022/07/14 13:46:04;;;;;;;3.67;1.77;;;36.80;62.00;;;;;;5003595;28;20196;-35
2022/07/14 13:48:30;;;;;;;1.80;1.30;;;37.10;61.60;;;;;;4991688;28;20176;-35
2022/07/14 13:53:41;;;;;;;3.10;1.38;;;37.40;61.10;;;;;;5007460;28;20239;-34
2022/07/14 13:56:07;;;;;;;1.58;1.40;;;37.10;59.90;;;;;;5010799;28;20219;-34
2022/07/14 13:58:33;;;;;;;4.05;1.77;;;36.90;60.60;;;;;;4993260;28;20183;-34
2022/07/14 14:00:59;;;;;;;2.80;1.55;;;36.70;59.80;;;;;;4974660;28;20176;-34
2022/07/14 14:03:26;;;;;;;2.00;1.60;;;36.60;60.80;;;;;;4992391;28;20180;-35
2022/07/14 14:06:04;;;;;;;4.10;1.33;;;36.60;62.00;;;;;;4974355;28;20226;-34
2022/07/14 14:08:32;;;;;;;2.63;1.48;;;36.60;61.40;;;;;;4977722;28;20195;-35
2022/07/14 14:10:59;;;;;;;3.70;1.80;;;36.80;62.90;;;;;;4973088;28;20192;-34
2022/07/14 14:13:28;;;;;;;1.75;1.50;;;37.10;61.40;;;;;;5005601;28;20227;-35
2022/07/14 14:15:55;;;;;;;3.78;1.67;;;37.20;60.90;;;;;;4991296;28;20192;-34
2022/07/14 14:18:21;;;;;;;3.65;1.73;;;37.20;61.00;;;;;;4976393;28;20183;-37
2022/07/14 14:20:47;;;;;;;2.53;1.38;;;37.40;61.30;;;;;;4980029;28;20840;-34
2022/07/14 14:23:14;;;;;;;1.90;1.60;;;37.10;60.00;;;;;;4977444;28;20180;-34
2022/07/14 14:25:40;;;;;;;2.95;1.60;;;36.70;59.70;;;;;;4961823;28;20222;-34
2022/07/14 14:28:06;;;;;;;3.22;1.52;;;36.30;60.40;;;;;;4978701;28;20220;-34
2022/07/14 14:30:34;;;;;;;2.47;1.30;;;36.10;60.00;;;;;;4991285;28;20294;-36
2022/07/14 14:33:00;;;;;;;2.08;1.70;;;36.20;60.50;;;;;;5001192;28;20215;-34
2022/07/14 14:35:26;;;;;;;5.13;1.60;;;36.10;61.10;;;;;;4970288;28;20215;-36
2022/07/14 14:37:52;;;;;;;1.85;1.58;;;36.20;60.70;;;;;;4956348;28;21458;-35
2022/07/14 14:40:19;;;;;;;2.38;1.60;;;36.30;60.20;;;;;;4991170;28;20211;-34
2022/07/14 14:42:45;;;;;;;2.70;1.60;;;36.40;61.90;;;;;;4959730;28;20290;-35
2022/07/14 14:45:12;;;;;;;6.22;1.60;;;36.40;60.10;;;;;;4973856;28;20191;-35
2022/07/14 14:47:39;;;;;;;1.65;1.45;;;36.50;60.10;;;;;;4973148;28;20188;-35
2022/07/14 14:50:07;;;;;;;2.35;1.40;;;36.40;60.70;;;;;;4971926;28;20683;-35
2022/07/14 14:52:33;;;;;;;2.58;1.63;;;36.50;62.20;;;;;;4973147;28;20298;-35
2022/07/14 14:55:00;;;;;;;3.88;1.45;;;36.80;62.80;;;;;;4971495;28;20180;-34
2022/07/14 14:57:26;;;;;;;1.50;1.38;;;37.00;60.60;;;;;;4962667;28;20321;-35
2022/07/14 14:59:52;;;;;;;4.18;1.77;;;37.00;61.30;;;;;;4962204;28;20311;-34